createdAt,value
2018-09-22T00:01:15.770Z,13.20
2018-09-22T00:03:48.140Z,12.80
2018-09-22T00:06:18.858Z,13.00
2018-09-22T00:08:50.065Z,13.10
2018-09-22T00:11:21.557Z,12.90
2018-09-22T00:13:52.363Z,13.00
2018-09-22T00:16:23.242Z,12.60
2018-09-22T00:18:57.823Z,13.00
2018-09-22T00:24:04.013Z,13.30
2018-09-22T00:26:36.076Z,13.00
2018-09-22T00:29:07.060Z,12.90
2018-09-22T00:31:38.973Z,13.40
2018-09-22T00:36:50.220Z,13.00
2018-09-22T00:39:21.180Z,13.10
2018-09-22T00:41:52.309Z,12.60
2018-09-22T00:44:26.663Z,13.40
2018-09-22T00:46:59.910Z,13.00
2018-09-22T00:49:32.242Z,12.80
2018-09-22T00:52:10.153Z,13.10
2018-09-22T00:54:41.847Z,13.00
2018-09-22T00:57:12.413Z,12.90
2018-09-22T00:59:42.477Z,13.50
2018-09-22T01:02:15.763Z,13.20
2018-09-22T01:04:50.067Z,13.10
2018-09-22T01:07:20.315Z,13.20
2018-09-22T01:09:52.787Z,13.20
2018-09-22T01:12:23.119Z,13.50
2018-09-22T01:17:32.381Z,13.20
2018-09-22T01:20:02.938Z,13.20
2018-09-22T01:22:34.878Z,13.00
2018-09-22T01:25:06.129Z,12.90
2018-09-22T01:36:44.569Z,13.90
2018-09-22T01:39:15.182Z,13.20
2018-09-22T01:41:48.036Z,13.40
2018-09-22T01:44:22.294Z,13.40
2018-09-22T01:46:52.338Z,13.30
2018-09-22T01:49:24.520Z,13.70
2018-09-22T01:51:57.825Z,13.70
2018-09-22T01:54:29.299Z,13.60
2018-09-22T01:57:00.259Z,13.80
2018-09-22T01:59:35.116Z,13.60
2018-09-22T02:02:08.768Z,13.50
2018-09-22T02:04:39.920Z,13.20
2018-09-22T02:07:14.188Z,13.30
2018-09-22T02:09:47.921Z,14.00
2018-09-22T02:12:17.445Z,13.40
2018-09-22T02:14:47.397Z,13.80
2018-09-22T02:17:20.570Z,13.40
2018-09-22T02:19:51.748Z,13.50
2018-09-22T02:22:22.892Z,13.70
2018-09-22T02:24:56.762Z,13.20
2018-09-22T02:27:31.222Z,13.10
2018-09-22T02:30:08.264Z,13.10
2018-09-22T02:32:37.308Z,13.20
2018-09-22T02:35:08.737Z,13.20
2018-09-22T02:37:39.649Z,13.50
2018-09-22T02:40:08.749Z,13.60
2018-09-22T02:42:39.471Z,13.50
2018-09-22T02:45:16.503Z,13.00
2018-09-22T02:47:48.289Z,13.00
2018-09-22T02:50:24.433Z,13.30
2018-09-22T02:55:31.086Z,13.10
2018-09-22T02:58:02.395Z,13.20
2018-09-22T03:03:12.642Z,13.20
2018-09-22T03:05:42.589Z,13.30
2018-09-22T03:08:12.567Z,13.00
2018-09-22T03:10:41.510Z,13.60
2018-09-22T03:13:13.313Z,13.20
2018-09-22T03:15:44.361Z,13.80
2018-09-22T03:18:13.451Z,14.10
2018-09-22T03:20:42.322Z,13.50
2018-09-22T03:23:11.522Z,12.90
2018-09-22T03:25:41.227Z,13.30
2018-09-22T03:28:10.712Z,13.50
2018-09-22T03:30:40.134Z,13.80
2018-09-22T03:33:09.730Z,13.50
2018-09-22T03:35:38.532Z,13.20
2018-09-22T03:38:07.364Z,13.40
2018-09-22T03:40:40.640Z,13.50
2018-09-22T03:45:44.890Z,13.70
2018-09-22T03:48:17.217Z,13.10
2018-09-22T03:50:48.533Z,13.50
2018-09-22T03:53:19.055Z,13.40
2018-09-22T03:55:50.455Z,13.10
2018-09-22T04:00:55.628Z,13.20
2018-09-22T04:03:27.533Z,13.30
2018-09-22T04:05:56.794Z,13.20
2018-09-22T04:08:26.567Z,13.20
2018-09-22T04:11:00.024Z,13.50
2018-09-22T04:13:30.217Z,13.80
2018-09-22T04:16:03.477Z,13.50
2018-09-22T04:18:35.315Z,13.50
2018-09-22T04:21:04.428Z,13.90
2018-09-22T04:23:34.661Z,13.90
2018-09-22T04:26:03.941Z,13.30
2018-09-22T04:28:33.577Z,13.70
2018-09-22T04:31:04.946Z,13.70
2018-09-22T04:33:36.680Z,13.60
2018-09-22T04:36:06.289Z,13.50
2018-09-22T04:38:35.797Z,13.80
2018-09-22T04:41:05.891Z,13.30
2018-09-22T04:43:39.579Z,13.50
2018-09-22T04:48:52.839Z,13.60
2018-09-22T04:51:27.151Z,13.60
2018-09-22T04:53:56.450Z,13.40
2018-09-22T04:56:25.471Z,13.30
2018-09-22T04:58:55.492Z,12.70
2018-09-22T05:01:24.487Z,13.50
2018-09-22T05:03:55.102Z,13.50
2018-09-22T05:06:23.829Z,13.20
2018-09-22T05:08:52.807Z,13.50
2018-09-22T05:11:23.402Z,13.60
2018-09-22T05:13:52.562Z,13.60
2018-09-22T05:16:22.542Z,12.70
2018-09-22T05:18:51.488Z,13.30
2018-09-22T05:21:20.871Z,13.50
2018-09-22T05:23:54.377Z,13.10
2018-09-22T05:26:23.443Z,12.50
2018-09-22T05:28:53.091Z,13.10
2018-09-22T05:31:21.950Z,13.10
2018-09-22T05:33:51.106Z,13.10
2018-09-22T05:36:21.794Z,13.30
2018-09-22T05:39:00.044Z,13.00
2018-09-22T05:41:34.788Z,13.30
2018-09-22T05:44:05.055Z,13.00
2018-09-22T05:46:39.083Z,13.30
2018-09-22T05:49:11.787Z,13.10
2018-09-22T05:51:43.195Z,13.40
2018-09-22T05:56:50.108Z,13.50
2018-09-22T05:59:19.172Z,12.90
2018-09-22T06:04:32.002Z,13.30
2018-09-22T06:07:05.998Z,12.30
2018-09-22T06:09:34.885Z,12.90
2018-09-22T06:12:06.371Z,12.90
2018-09-22T06:14:36.924Z,13.20
2018-09-22T06:17:07.961Z,13.10
2018-09-22T06:19:36.845Z,13.00
2018-09-22T06:22:05.904Z,12.60
2018-09-22T06:24:37.342Z,13.00
2018-09-22T06:29:45.351Z,13.10
2018-09-22T06:32:14.425Z,13.20
2018-09-22T06:34:45.850Z,13.20
2018-09-22T06:37:15.516Z,13.50
2018-09-22T06:39:46.481Z,13.50
2018-09-22T06:42:28.898Z,13.70
2018-09-22T06:44:57.636Z,13.40
2018-09-22T06:47:31.082Z,13.60
2018-09-22T06:50:00.792Z,13.40
2018-09-22T06:52:30.615Z,13.90
2018-09-22T06:55:02.836Z,13.20
2018-09-22T06:57:32.587Z,13.10
2018-09-22T07:02:41.131Z,13.80
2018-09-22T07:07:38.304Z,13.70
2018-09-22T07:10:07.194Z,14.00
2018-09-22T07:12:36.366Z,14.00
2018-09-22T07:15:05.356Z,14.10
2018-09-22T07:17:34.414Z,13.90
2018-09-22T07:20:03.360Z,14.00
2018-09-22T07:22:37.512Z,13.70
2018-09-22T07:25:06.996Z,14.30
2018-09-22T07:27:36.672Z,14.30
2018-09-22T07:30:06.304Z,14.10
2018-09-22T07:32:35.228Z,14.30
2018-09-22T07:35:05.960Z,14.50
2018-09-22T07:37:36.578Z,14.30
2018-09-22T07:40:08.491Z,14.50
2018-09-22T07:42:39.562Z,14.80
2018-09-22T07:45:10.350Z,14.80
2018-09-22T07:47:41.227Z,14.90
2018-09-22T07:50:13.157Z,14.40
2018-09-22T07:52:45.299Z,14.70
2018-09-22T07:55:16.536Z,14.70
2018-09-22T07:57:47.108Z,14.50
2018-09-22T08:00:19.931Z,14.90
2018-09-22T08:02:53.072Z,15.00
2018-09-22T08:05:26.638Z,14.70
2018-09-22T08:07:59.499Z,14.80
2018-09-22T08:10:30.932Z,15.40
2018-09-22T08:13:01.640Z,15.70
2018-09-22T08:15:32.773Z,16.20
2018-09-22T08:18:04.378Z,16.30
2018-09-22T08:20:35.769Z,15.60
2018-09-22T08:23:06.370Z,15.00
2018-09-22T08:25:36.899Z,15.70
2018-09-22T08:28:07.434Z,14.90
2018-09-22T08:30:42.641Z,15.40
2018-09-22T08:33:15.003Z,14.90
2018-09-22T08:35:46.137Z,15.00
2018-09-22T08:38:20.378Z,15.20
2018-09-22T08:40:56.515Z,15.60
2018-09-22T08:43:28.865Z,16.10
2018-09-22T08:46:04.776Z,15.90
2018-09-22T08:48:40.077Z,16.20
2018-09-22T08:51:11.577Z,15.90
2018-09-22T08:53:47.686Z,15.90
2018-09-22T08:56:22.837Z,15.90
2018-09-22T08:58:51.614Z,16.20
2018-09-22T09:01:21.395Z,16.50
2018-09-22T09:03:50.321Z,16.30
2018-09-22T09:06:19.719Z,16.50
2018-09-22T09:08:48.430Z,17.00
2018-09-22T09:11:17.521Z,16.70
2018-09-22T09:13:46.518Z,17.10
2018-09-22T09:16:17.633Z,16.60
2018-09-22T09:18:47.305Z,17.10
2018-09-22T09:21:18.473Z,16.80
2018-09-22T09:23:48.166Z,17.00
2018-09-22T09:26:17.588Z,17.10
2018-09-22T09:28:47.111Z,16.90
2018-09-22T09:31:17.558Z,17.10
2018-09-22T09:33:47.104Z,17.30
2018-09-22T09:36:16.887Z,17.50
2018-09-22T09:38:46.619Z,17.60
2018-09-22T09:41:17.109Z,17.00
2018-09-22T09:43:46.293Z,17.60
2018-09-22T09:46:15.479Z,17.60
2018-09-22T09:48:44.873Z,17.40
2018-09-22T09:51:15.269Z,17.60
2018-09-22T09:56:20.899Z,17.70
2018-09-22T10:01:18.865Z,17.80
2018-09-22T10:03:48.615Z,17.90
2018-09-22T10:06:19.275Z,17.60
2018-09-22T10:08:48.399Z,17.60
2018-09-22T10:11:18.551Z,17.90
2018-09-22T10:13:47.566Z,17.50
2018-09-22T10:16:16.508Z,17.70
2018-09-22T10:18:45.364Z,17.40
2018-09-22T10:21:14.286Z,18.00
2018-09-22T10:23:43.324Z,17.90
2018-09-22T10:26:13.695Z,18.20
2018-09-22T10:28:43.143Z,17.60
2018-09-22T10:31:14.236Z,18.10
2018-09-22T10:33:47.647Z,18.40
2018-09-22T10:36:18.652Z,17.80
2018-09-22T10:38:49.589Z,18.50
2018-09-22T10:41:23.174Z,18.20
2018-09-22T10:43:54.048Z,18.20
2018-09-22T10:59:28.314Z,17.90
2018-09-22T11:02:02.851Z,18.50
2018-09-22T11:04:32.954Z,18.10
2018-09-22T11:07:05.263Z,18.00
2018-09-22T11:09:35.285Z,18.50
2018-09-22T11:12:05.528Z,18.50
2018-09-22T11:14:35.220Z,17.90
2018-09-22T11:17:06.893Z,18.60
2018-09-22T11:19:36.904Z,18.50
2018-09-22T11:22:06.881Z,18.40
2018-09-22T11:24:36.951Z,18.00
2018-09-22T11:27:06.242Z,18.30
2018-09-22T11:29:36.023Z,18.60
2018-09-22T11:32:06.205Z,18.90
2018-09-22T11:34:35.371Z,18.80
2018-09-22T11:37:05.081Z,19.60
2018-09-22T11:39:35.461Z,18.70
2018-09-22T11:42:04.391Z,18.60
2018-09-22T11:44:34.498Z,18.90
2018-09-22T11:47:05.512Z,18.80
2018-09-22T11:49:36.542Z,18.70
2018-09-22T11:52:07.522Z,18.40
2018-09-22T11:54:36.791Z,18.10
2018-09-22T11:57:07.339Z,18.80
2018-09-22T11:59:39.009Z,18.60
2018-09-22T12:02:08.941Z,18.40
2018-09-22T12:04:38.743Z,18.90
2018-09-22T12:09:48.699Z,18.20
2018-09-22T12:12:19.040Z,17.90
2018-09-22T12:14:49.979Z,18.40
2018-09-22T12:17:24.813Z,18.00
2018-09-22T12:19:54.727Z,17.80
2018-09-22T12:22:24.756Z,17.60
2018-09-22T12:24:53.889Z,17.20
2018-09-22T12:27:25.118Z,17.30
2018-09-22T12:29:54.679Z,16.80
2018-09-22T12:32:25.656Z,17.30
2018-09-22T12:34:54.459Z,17.20
2018-09-22T12:37:23.289Z,17.30
2018-09-22T12:39:52.138Z,17.40
2018-09-22T12:42:21.110Z,17.00
2018-09-22T12:44:50.066Z,16.40
2018-09-22T12:47:20.658Z,15.70
2018-09-22T12:49:49.549Z,15.30
2018-09-22T12:52:18.427Z,15.20
2018-09-22T12:54:48.875Z,14.60
2018-09-22T12:57:20.565Z,14.60
2018-09-22T12:59:49.521Z,14.60
2018-09-22T13:02:19.029Z,14.50
2018-09-22T13:07:24.572Z,14.30
2018-09-22T13:09:58.731Z,14.60
2018-09-22T13:12:30.901Z,14.20
2018-09-22T13:15:01.664Z,14.10
2018-09-22T13:17:32.889Z,13.70
2018-09-22T13:20:04.675Z,13.90
2018-09-22T13:22:34.257Z,14.20
2018-09-22T13:25:06.501Z,14.30
2018-09-22T13:27:35.318Z,14.30
2018-09-22T13:30:05.053Z,14.30
2018-09-22T13:32:34.071Z,14.70
2018-09-22T13:35:02.964Z,14.10
2018-09-22T13:37:31.819Z,14.30
2018-09-22T13:40:00.739Z,14.30
2018-09-22T13:42:29.429Z,14.50
2018-09-22T13:44:58.093Z,14.60
2018-09-22T13:47:26.889Z,14.60
2018-09-22T13:49:55.548Z,14.30
2018-09-22T13:52:24.564Z,14.40
2018-09-22T13:54:53.214Z,15.00
2018-09-22T13:57:22.052Z,15.30
2018-09-22T13:59:51.169Z,15.30
2018-09-22T14:02:20.022Z,15.30
2018-09-22T14:04:48.677Z,15.20
2018-09-22T14:07:17.426Z,15.20
2018-09-22T14:09:46.075Z,15.50
2018-09-22T14:12:14.633Z,15.60
2018-09-22T14:14:43.279Z,15.50
2018-09-22T14:17:12.626Z,15.80
2018-09-22T14:19:41.360Z,15.70
2018-09-22T14:22:10.378Z,15.70
2018-09-22T14:24:39.091Z,15.80
2018-09-22T14:27:08.039Z,15.30
2018-09-22T14:29:37.002Z,15.80
2018-09-22T14:32:06.158Z,15.70
2018-09-22T14:34:34.706Z,15.60
2018-09-22T14:37:03.763Z,15.10
2018-09-22T14:39:32.649Z,15.10
2018-09-22T14:42:01.536Z,15.30
2018-09-22T14:44:30.416Z,15.30
2018-09-22T14:47:00.549Z,14.90
2018-09-22T14:49:29.447Z,14.90
2018-09-22T14:51:58.809Z,14.60
2018-09-22T14:54:27.509Z,14.80
2018-09-22T14:56:56.230Z,14.50
2018-09-22T14:59:24.998Z,14.50
2018-09-22T15:01:53.709Z,14.40
2018-09-22T15:04:22.456Z,14.70
2018-09-22T15:06:51.046Z,14.40
2018-09-22T15:09:19.996Z,14.10
2018-09-22T15:11:48.712Z,14.40
2018-09-22T15:14:17.730Z,14.80
2018-09-22T15:16:46.360Z,14.50
2018-09-22T15:19:15.047Z,14.60
2018-09-22T15:21:43.961Z,14.70
2018-09-22T15:24:12.749Z,14.40
2018-09-22T15:26:41.445Z,14.70
2018-09-22T15:29:10.448Z,14.60
2018-09-22T15:31:39.373Z,14.40
2018-09-22T15:34:08.120Z,14.70
2018-09-22T15:36:36.760Z,14.80
2018-09-22T15:39:07.744Z,14.80
2018-09-22T15:41:36.630Z,14.90
2018-09-22T15:44:05.269Z,14.60
2018-09-22T15:46:33.880Z,15.00
2018-09-22T15:49:02.659Z,14.60
2018-09-22T15:51:31.326Z,14.60
2018-09-22T15:54:01.243Z,14.70
2018-09-22T15:56:30.168Z,14.50
2018-09-22T15:58:59.199Z,15.00
2018-09-22T16:01:27.948Z,15.10
2018-09-22T16:03:56.806Z,14.60
2018-09-22T16:06:25.678Z,15.00
2018-09-22T16:08:54.475Z,15.10
2018-09-22T16:11:23.273Z,14.30
2018-09-22T16:13:52.025Z,14.30
2018-09-22T16:16:20.883Z,14.10
2018-09-22T16:18:49.572Z,14.00
2018-09-22T16:21:18.616Z,14.20
2018-09-22T16:23:47.207Z,14.30
2018-09-22T16:26:15.998Z,14.50
2018-09-22T16:28:44.920Z,14.60
2018-09-22T16:31:13.812Z,14.50
2018-09-22T16:33:42.657Z,14.70
2018-09-22T16:36:11.561Z,14.50
2018-09-22T16:38:40.399Z,14.60
2018-09-22T16:41:09.389Z,14.20
2018-09-22T16:43:37.888Z,14.40
2018-09-22T16:46:06.844Z,14.20
2018-09-22T16:48:35.682Z,14.70
2018-09-22T16:51:04.382Z,14.60
2018-09-22T16:53:33.251Z,14.80
2018-09-22T16:56:01.893Z,15.00
2018-09-22T16:58:30.485Z,14.50
2018-09-22T17:00:59.228Z,14.70
2018-09-22T17:03:30.780Z,14.70
2018-09-22T17:06:02.647Z,14.80
2018-09-22T17:08:31.279Z,14.30
2018-09-22T17:11:00.107Z,14.70
2018-09-22T17:13:28.931Z,14.70
2018-09-22T17:15:57.877Z,14.40
2018-09-22T17:18:26.593Z,14.00
2018-09-22T17:20:57.870Z,14.30
2018-09-22T17:23:26.446Z,13.80
2018-09-22T17:25:55.455Z,14.30
2018-09-22T17:28:24.398Z,14.10
2018-09-22T17:30:53.383Z,13.90
2018-09-22T17:33:23.100Z,14.10
2018-09-22T17:35:52.948Z,14.00
2018-09-22T17:38:25.105Z,14.70
2018-09-22T17:40:54.154Z,14.30
2018-09-22T17:43:23.419Z,14.10
2018-09-22T17:45:53.836Z,14.30
2018-09-22T17:48:24.457Z,14.30
2018-09-22T17:50:53.524Z,14.20
2018-09-22T17:53:22.435Z,13.80
2018-09-22T17:55:52.832Z,14.20
2018-09-22T17:58:21.483Z,14.30
2018-09-22T18:00:51.937Z,14.30
2018-09-22T18:03:23.123Z,13.70
2018-09-22T18:05:52.302Z,14.20
2018-09-22T18:08:25.129Z,14.20
2018-09-22T18:10:55.016Z,14.30
2018-09-22T18:13:24.082Z,13.70
2018-09-22T18:15:53.067Z,13.70
2018-09-22T18:18:22.743Z,13.30
2018-09-22T18:20:51.405Z,13.90
2018-09-22T18:23:20.513Z,13.90
2018-09-22T18:25:50.315Z,14.10
2018-09-22T18:28:20.205Z,13.60
2018-09-22T18:30:48.973Z,13.40
2018-09-22T18:33:18.150Z,13.20
2018-09-22T18:35:47.829Z,13.30
2018-09-22T18:38:16.721Z,13.60
2018-09-22T18:40:46.734Z,13.80
2018-09-22T18:43:15.801Z,13.30
2018-09-22T18:45:45.888Z,13.40
2018-09-22T18:48:16.103Z,13.70
2018-09-22T18:50:44.811Z,13.60
2018-09-22T18:53:13.875Z,13.10
2018-09-22T18:55:44.397Z,13.90
2018-09-22T18:58:13.476Z,14.10
2018-09-22T19:00:42.158Z,13.50
2018-09-22T19:03:14.379Z,13.70
2018-09-22T19:05:43.885Z,13.10
2018-09-22T19:08:13.312Z,14.10
2018-09-22T19:10:43.628Z,14.10
2018-09-22T19:13:16.184Z,13.50
2018-09-22T19:15:51.479Z,13.00
2018-09-22T19:19:23.955Z,13.70
2018-09-22T19:21:56.251Z,13.80
2018-09-22T19:25:31.209Z,13.40
2018-09-22T19:28:08.440Z,13.40
2018-09-22T19:30:43.428Z,13.00
2018-09-22T19:33:18.340Z,13.10
2018-09-22T19:36:22.974Z,13.40
2018-09-22T19:38:57.857Z,13.70
2018-09-22T19:41:33.860Z,13.40
2018-09-22T19:44:09.111Z,13.00
2018-09-22T19:46:41.985Z,13.70
2018-09-22T19:49:14.420Z,13.60
2018-09-22T19:51:47.001Z,13.60
2018-09-22T19:54:16.532Z,13.50
2018-09-22T19:56:45.495Z,13.70
2018-09-22T19:59:15.455Z,13.50
2018-09-22T20:01:44.496Z,14.00
2018-09-22T20:04:13.436Z,13.60
2018-09-22T20:06:43.496Z,13.50
2018-09-22T20:09:14.017Z,14.10
2018-09-22T20:12:11.168Z,13.80
2018-09-22T20:14:42.251Z,13.10
2018-09-22T20:17:11.433Z,13.60
2018-09-22T20:19:41.172Z,13.80
2018-09-22T20:22:11.273Z,13.90
2018-09-22T20:24:40.370Z,13.80
2018-09-22T20:27:09.747Z,13.80
2018-09-22T20:29:39.381Z,13.80
2018-09-22T20:32:08.761Z,13.70
2018-09-22T20:34:39.370Z,13.40
2018-09-22T20:37:09.257Z,13.90
2018-09-22T20:39:39.070Z,13.70
2018-09-22T20:42:08.906Z,13.30
2018-09-22T20:44:39.517Z,13.50
2018-09-22T20:47:08.452Z,13.40
2018-09-22T20:49:39.674Z,13.50
2018-09-22T20:52:09.015Z,13.20
2018-09-22T20:54:39.031Z,13.50
2018-09-22T20:57:08.430Z,13.90
2018-09-22T20:59:38.282Z,13.70
2018-09-22T21:02:08.426Z,13.90
2018-09-22T21:04:37.760Z,13.60
2018-09-22T21:07:06.666Z,14.00
2018-09-22T21:09:38.064Z,13.80
2018-09-22T21:12:06.758Z,13.70
2018-09-22T21:14:35.596Z,14.10
2018-09-22T21:17:04.766Z,14.00
2018-09-22T21:19:34.343Z,13.70
2018-09-22T21:22:03.446Z,13.50
2018-09-22T21:24:32.592Z,13.70
2018-09-22T21:27:02.282Z,14.00
2018-09-22T21:29:31.615Z,14.40
2018-09-22T21:32:01.267Z,14.20
2018-09-22T21:34:30.109Z,14.00
2018-09-22T21:36:59.596Z,13.50
2018-09-22T21:39:28.601Z,13.90
2018-09-22T21:41:58.054Z,13.30
2018-09-22T21:44:27.942Z,13.60
2018-09-22T21:46:58.662Z,13.80
2018-09-22T21:49:27.520Z,13.80
2018-09-22T21:51:56.360Z,14.10
2018-09-22T21:54:27.451Z,13.90
2018-09-22T21:57:00.784Z,13.80
2018-09-22T21:59:30.462Z,13.70
2018-09-22T22:02:00.695Z,13.70
2018-09-22T22:04:30.797Z,13.80
2018-09-22T22:07:02.687Z,13.90
2018-09-22T22:09:33.458Z,13.80
2018-09-22T22:12:04.889Z,14.10
2018-09-22T22:14:35.237Z,13.60
2018-09-22T22:17:08.833Z,13.80
2018-09-22T22:19:38.571Z,13.60
2018-09-22T22:22:08.112Z,13.40
2018-09-22T22:24:37.961Z,13.50
2018-09-22T22:27:08.468Z,13.60
2018-09-22T22:29:40.003Z,13.40
2018-09-22T22:32:10.624Z,13.60
2018-09-22T22:34:39.776Z,13.40
2018-09-22T22:37:10.201Z,13.60
2018-09-22T22:39:42.806Z,13.70
2018-09-22T22:42:12.052Z,13.00
2018-09-22T22:44:42.628Z,13.30
2018-09-22T22:47:11.875Z,13.50
2018-09-22T22:49:44.056Z,13.80
2018-09-22T22:52:16.837Z,13.40
2018-09-22T22:54:46.010Z,13.40
2018-09-22T22:57:16.070Z,13.30
2018-09-22T22:59:49.066Z,12.80
2018-09-22T23:02:20.658Z,13.60
2018-09-22T23:04:54.483Z,13.00
2018-09-22T23:07:25.347Z,13.50
2018-09-22T23:09:56.064Z,12.90
2018-09-22T23:12:27.139Z,12.70
2018-09-22T23:15:00.450Z,13.80
2018-09-22T23:17:34.421Z,13.30
2018-09-22T23:20:06.467Z,13.70
2018-09-22T23:22:45.870Z,13.40
2018-09-22T23:25:20.592Z,13.10
2018-09-22T23:27:52.185Z,13.40
2018-09-22T23:30:28.001Z,12.90
2018-09-22T23:32:59.752Z,14.00
2018-09-22T23:35:30.618Z,13.50
2018-09-22T23:40:50.173Z,13.60
2018-09-22T23:43:20.187Z,13.50
2018-09-22T23:45:51.778Z,13.30
2018-09-22T23:48:21.403Z,13.00
2018-09-22T23:50:56.848Z,13.10
2018-09-22T23:53:29.407Z,12.90
2018-09-22T23:56:00.421Z,13.20
2018-09-22T23:58:33.078Z,13.30
